Time;durP1;ratioP1;P1;durP2;ratioP2;P2;SDS_P1;SDS_P2;PMS_P1;PMS_P2;Temp;Humidity;BMP_temperature;BMP_pressure;BME280_temperature;BME280_humidity;BME280_pressure;Samples;Min_cycle;Max_cycle;Signal;HPM_P1;HPM_P2
2023/05/27 12:40:20;;;;;;;;;;;21.00;64.20;;;;;;4881872;29;19931;-72
2023/05/27 12:42:46;;;;;;;;;;;21.10;61.20;;;;;;4883754;29;20025;-72
2023/05/27 12:45:13;;;;;;;;;;;21.00;59.90;;;;;;4883637;29;19923;-72
2023/05/27 12:47:39;;;;;;;;;;;21.00;59.60;;;;;;4883455;29;19934;-69
2023/05/27 12:50:07;;;;;;;;;;;21.10;61.20;;;;;;4883459;29;19931;-70
2023/05/27 12:52:33;;;;;;;;;;;21.10;63.30;;;;;;4883943;29;19919;-69
2023/05/27 12:55:00;;;;;;;;;;;21.10;60.00;;;;;;4883565;29;19934;-68
2023/05/27 12:57:29;;;;;;;;;;;21.10;59.40;;;;;;4883304;29;19923;-69
2023/05/27 12:59:55;;;;;;;;;;;21.00;59.50;;;;;;4883265;29;19924;-69
2023/05/27 13:02:22;;;;;;;;;;;21.00;59.50;;;;;;4883256;29;19931;-69
2023/05/27 13:04:49;;;;;;;;;;;20.90;60.10;;;;;;4883180;29;19924;-69
2023/05/27 13:07:16;;;;;;;;;;;21.20;60.20;;;;;;4882937;29;20299;-69
2023/05/27 13:09:42;;;;;;;;;;;21.20;59.80;;;;;;4883312;29;19923;-69
2023/05/27 13:12:09;;;;;;;;;;;21.20;60.60;;;;;;4883018;29;19928;-69
2023/05/27 13:14:37;;;;;;;;;;;21.10;62.40;;;;;;4883037;29;19924;-68
2023/05/27 13:17:06;;;;;;;;;;;21.10;62.80;;;;;;4883375;29;19927;-69
2023/05/27 13:19:32;;;;;;;;;;;21.10;63.00;;;;;;4883064;29;19924;-70
2023/05/27 13:21:59;;;;;;;;;;;21.10;62.10;;;;;;4882825;29;20327;-70
2023/05/27 13:24:26;;;;;;;;;;;21.20;61.20;;;;;;4882564;29;20383;-69
2023/05/27 13:26:52;;;;;;;;;;;21.20;60.40;;;;;;4882553;29;20333;-69
2023/05/27 13:29:19;;;;;;;;;;;21.20;61.30;;;;;;4883023;29;19924;-73
2023/05/27 13:31:46;;;;;;;;;;;21.10;62.00;;;;;;4882724;29;20380;-72
2023/05/27 13:34:13;;;;;;;;;;;21.10;61.70;;;;;;4882657;29;20280;-70
2023/05/27 13:36:40;;;;;;;;;;;21.10;63.20;;;;;;4882786;29;19928;-70
2023/05/27 13:39:06;;;;;;;;;;;21.20;63.40;;;;;;4882584;29;20010;-71
2023/05/27 13:41:33;;;;;;;;;;;21.20;63.10;;;;;;4882619;29;19930;-70
2023/05/27 13:43:59;;;;;;;;;;;21.20;64.50;;;;;;4882211;29;20347;-71
2023/05/27 13:46:26;;;;;;;;;;;21.20;64.80;;;;;;4882178;29;19927;-70
2023/05/27 13:48:54;;;;;;;;;;;21.20;64.00;;;;;;4882354;29;19924;-70
2023/05/27 13:51:21;;;;;;;;;;;21.20;63.10;;;;;;4882993;29;19927;-71
2023/05/27 13:53:48;;;;;;;;;;;21.20;61.90;;;;;;4882538;29;19924;-72
2023/05/27 13:56:15;;;;;;;;;;;21.20;61.80;;;;;;4882161;29;19924;-72
2023/05/27 13:58:42;;;;;;;;;;;21.10;60.90;;;;;;4882017;29;19924;-73
2023/05/27 14:01:08;;;;;;;;;;;21.00;59.20;;;;;;4882111;29;19935;-73
2023/05/27 14:03:35;;;;;;;;;;;21.10;59.50;;;;;;4882199;29;19923;-73
2023/05/27 14:06:03;;;;;;;;;;;21.20;57.90;;;;;;4881864;29;19924;-72
2023/05/27 14:08:29;;;;;;;;;;;21.30;59.20;;;;;;4882011;29;20291;-72
2023/05/27 14:10:56;;;;;;;;;;;21.30;59.90;;;;;;4882015;29;20023;-72
2023/05/27 14:13:23;;;;;;;;;;;21.20;60.80;;;;;;4881865;29;19924;-71
2023/05/27 14:15:50;;;;;;;;;;;21.30;60.80;;;;;;4881630;29;20353;-71
2023/05/27 14:18:17;;;;;;;;;;;21.20;59.10;;;;;;4881933;29;19931;-71
2023/05/27 14:20:43;;;;;;;;;;;21.30;60.70;;;;;;4881830;29;19928;-71
2023/05/27 14:23:12;;;;;;;;;;;21.30;60.80;;;;;;4881924;29;19924;-71
2023/05/27 14:25:38;;;;;;;;;;;21.30;61.50;;;;;;4881635;29;19948;-72
2023/05/27 14:28:06;;;;;;;;;;;21.40;62.60;;;;;;4881671;29;19924;-71
2023/05/27 14:30:36;;;;;;;;;;;21.50;62.00;;;;;;4881774;29;19923;-72
2023/05/27 14:33:02;;;;;;;;;;;21.40;59.60;;;;;;4881291;29;20367;-72
2023/05/27 14:35:29;;;;;;;;;;;21.30;57.70;;;;;;4880713;29;20371;-71
2023/05/27 14:37:55;;;;;;;;;;;21.30;58.00;;;;;;4881367;29;20272;-71
2023/05/27 14:40:23;;;;;;;;;;;21.20;58.30;;;;;;4881427;29;19931;-71
2023/05/27 14:42:50;;;;;;;;;;;21.20;58.40;;;;;;4881638;29;19924;-72
2023/05/27 14:45:18;;;;;;;;;;;21.10;59.20;;;;;;4881671;29;19928;-72
2023/05/27 14:47:45;;;;;;;;;;;21.20;60.00;;;;;;4881474;29;19923;-71
2023/05/27 14:50:11;;;;;;;;;;;21.20;61.50;;;;;;4881532;29;19928;-72
2023/05/27 14:52:39;;;;;;;;;;;21.30;62.60;;;;;;4881582;29;19947;-72
2023/05/27 14:55:06;;;;;;;;;;;21.20;61.50;;;;;;4881430;29;20054;-72
2023/05/27 14:57:34;;;;;;;;;;;21.30;60.20;;;;;;4881436;29;20030;-70
2023/05/27 15:00:01;;;;;;;;;;;21.30;59.80;;;;;;4881384;29;19924;-72
2023/05/27 15:02:28;;;;;;;;;;;21.20;59.20;;;;;;4881397;29;19923;-72
2023/05/27 15:04:54;;;;;;;;;;;21.20;60.70;;;;;;4881260;29;19931;-72
2023/05/27 15:07:22;;;;;;;;;;;21.10;62.40;;;;;;4881265;29;19931;-72
2023/05/27 15:09:49;;;;;;;;;;;21.10;63.00;;;;;;4881214;29;19967;-71
2023/05/27 15:12:16;;;;;;;;;;;21.10;63.00;;;;;;4881281;29;20016;-73
2023/05/27 15:14:44;;;;;;;;;;;21.10;61.90;;;;;;4880707;29;20359;-72
2023/05/27 15:17:11;;;;;;;;;;;21.10;62.90;;;;;;4880994;29;19931;-71
2023/05/27 15:19:38;;;;;;;;;;;21.00;62.50;;;;;;4880677;29;20459;-72
2023/05/27 15:22:04;;;;;;;;;;;21.00;63.00;;;;;;4880661;29;20391;-72
2023/05/27 15:24:31;;;;;;;;;;;21.00;62.90;;;;;;4880957;29;19931;-71
2023/05/27 15:26:57;;;;;;;;;;;21.00;62.30;;;;;;4881085;29;19923;-72
2023/05/27 15:29:24;;;;;;;;;;;21.00;62.00;;;;;;4880673;29;20395;-71
2023/05/27 15:31:52;;;;;;;;;;;21.00;62.40;;;;;;4881065;29;19924;-71
2023/05/27 15:34:18;;;;;;;;;;;20.90;62.60;;;;;;4880536;29;20364;-72
2023/05/27 15:36:45;;;;;;;;;;;20.90;61.40;;;;;;4880424;29;20379;-71
2023/05/27 15:39:12;;;;;;;;;;;20.90;60.70;;;;;;4881002;29;20529;-71
2023/05/27 15:41:39;;;;;;;;;;;20.90;59.80;;;;;;4880557;29;19924;-70
2023/05/27 15:44:06;;;;;;;;;;;20.90;60.60;;;;;;4880704;29;19927;-70
2023/05/27 15:46:32;;;;;;;;;;;20.90;60.80;;;;;;4880427;29;19927;-70
2023/05/27 15:49:00;;;;;;;;;;;20.90;60.90;;;;;;4880499;29;19924;-70
2023/05/27 15:51:27;;;;;;;;;;;20.80;61.30;;;;;;4880617;29;19923;-71
2023/05/27 15:53:53;;;;;;;;;;;20.80;62.50;;;;;;4880748;29;19923;-70
2023/05/27 15:56:20;;;;;;;;;;;20.80;61.60;;;;;;4880534;29;19924;-71
2023/05/27 15:58:46;;;;;;;;;;;20.80;62.10;;;;;;4880293;29;20436;-71
2023/05/27 16:01:13;;;;;;;;;;;20.80;61.40;;;;;;4880163;29;19923;-71
2023/05/27 16:03:39;;;;;;;;;;;20.80;61.70;;;;;;4880144;29;19931;-71
2023/05/27 16:06:08;;;;;;;;;;;20.80;62.60;;;;;;4880377;29;19931;-71
2023/05/27 16:08:34;;;;;;;;;;;20.80;62.70;;;;;;4880280;29;19956;-70
2023/05/27 16:11:01;;;;;;;;;;;20.80;63.70;;;;;;4880678;29;19927;-70
2023/05/27 16:13:27;;;;;;;;;;;20.80;63.80;;;;;;4880341;29;19924;-70
2023/05/27 16:15:55;;;;;;;;;;;20.70;63.00;;;;;;4880169;29;19930;-70
2023/05/27 16:18:22;;;;;;;;;;;20.60;63.50;;;;;;4880193;29;19995;-70
2023/05/27 16:20:49;;;;;;;;;;;20.60;63.60;;;;;;4880279;29;19923;-70
2023/05/27 16:23:17;;;;;;;;;;;20.60;63.80;;;;;;4879967;29;20371;-71
2023/05/27 16:25:44;;;;;;;;;;;20.50;63.60;;;;;;4879867;29;20288;-74
2023/05/27 16:28:10;;;;;;;;;;;20.50;64.00;;;;;;4880228;29;20265;-72
2023/05/27 16:30:37;;;;;;;;;;;20.50;64.20;;;;;;4879977;29;20403;-73
2023/05/27 16:33:03;;;;;;;;;;;20.50;64.40;;;;;;4880079;29;19923;-72
2023/05/27 16:35:30;;;;;;;;;;;20.50;63.40;;;;;;4880696;29;19923;-72
2023/05/27 16:37:57;;;;;;;;;;;20.50;63.80;;;;;;4880257;29;19924;-73
2023/05/27 16:40:25;;;;;;;;;;;20.40;63.90;;;;;;4880004;29;20028;-72
2023/05/27 16:42:51;;;;;;;;;;;20.30;63.90;;;;;;4880256;29;19924;-73
2023/05/27 16:45:18;;;;;;;;;;;20.30;63.50;;;;;;4880413;29;19923;-72
2023/05/27 16:47:45;;;;;;;;;;;20.30;63.60;;;;;;4880466;29;19924;-72
2023/05/27 16:50:11;;;;;;;;;;;20.30;63.10;;;;;;4880350;29;20026;-73
2023/05/27 16:52:38;;;;;;;;;;;20.20;62.80;;;;;;4880150;29;20352;-73
2023/05/27 16:55:06;;;;;;;;;;;20.20;62.00;;;;;;4880250;29;20313;-71
2023/05/27 16:57:33;;;;;;;;;;;20.20;62.20;;;;;;4880129;29;19971;-70
2023/05/27 17:00:00;;;;;;;;;;;20.20;63.10;;;;;;4883471;29;19924;-71
2023/05/27 17:02:27;;;;;;;;;;;20.10;62.70;;;;;;4883598;29;19924;-71
2023/05/27 17:04:53;;;;;;;;;;;20.20;63.10;;;;;;4883562;29;19979;-71
2023/05/27 17:07:20;;;;;;;;;;;20.10;63.20;;;;;;4883628;29;19928;-70
2023/05/27 17:09:46;;;;;;;;;;;20.10;63.60;;;;;;4883295;29;20376;-70
2023/05/27 17:12:13;;;;;;;;;;;20.10;63.80;;;;;;4883088;29;20272;-71
2023/05/27 17:14:43;;;;;;;;;;;20.20;63.80;;;;;;4882880;29;20390;-70
2023/05/27 17:17:09;;;;;;;;;;;20.10;63.60;;;;;;4883847;29;19931;-71
2023/05/27 17:19:36;;;;;;;;;;;20.10;63.30;;;;;;4883181;29;19923;-71
2023/05/27 17:22:03;;;;;;;;;;;20.10;63.40;;;;;;4883234;29;19923;-69
2023/05/27 17:24:29;;;;;;;;;;;20.00;64.20;;;;;;4883384;29;19924;-72
2023/05/27 17:26:56;;;;;;;;;;;19.90;64.20;;;;;;4883435;29;19980;-73
2023/05/27 17:29:22;;;;;;;;;;;19.90;65.00;;;;;;4883526;29;19923;-73
2023/05/27 17:31:50;;;;;;;;;;;19.90;65.60;;;;;;4883526;29;19924;-73
2023/05/27 17:34:17;;;;;;;;;;;19.90;65.60;;;;;;4882967;29;19932;-73
2023/05/27 17:36:43;;;;;;;;;;;19.80;66.20;;;;;;4882971;29;19931;-73
2023/05/27 17:39:10;;;;;;;;;;;19.70;66.50;;;;;;4882997;29;19924;-72
2023/05/27 17:41:37;;;;;;;;;;;19.70;66.40;;;;;;4882792;29;19923;-72
2023/05/27 17:44:03;;;;;;;;;;;19.70;66.60;;;;;;4883065;29;19949;-73
2023/05/27 17:46:31;;;;;;;;;;;19.60;67.30;;;;;;4882995;29;19924;-72
2023/05/27 17:48:59;;;;;;;;;;;19.60;68.10;;;;;;4882457;29;19923;-72
2023/05/27 17:51:26;;;;;;;;;;;19.50;68.50;;;;;;4882651;29;19955;-73
2023/05/27 17:53:54;;;;;;;;;;;19.60;69.20;;;;;;4882219;29;20377;-73
2023/05/27 17:56:20;;;;;;;;;;;19.50;69.30;;;;;;4882585;29;19931;-72
2023/05/27 17:58:47;;;;;;;;;;;19.40;69.40;;;;;;4882402;29;19923;-73
2023/05/27 18:01:13;;;;;;;;;;;19.40;69.90;;;;;;4882385;29;19931;-73
2023/05/27 18:03:40;;;;;;;;;;;19.40;69.80;;;;;;4882389;29;19924;-72
2023/05/27 18:06:08;;;;;;;;;;;19.30;70.10;;;;;;4882556;29;19931;-73
2023/05/27 18:08:35;;;;;;;;;;;19.20;70.30;;;;;;4882476;29;19928;-72
2023/05/27 18:11:02;;;;;;;;;;;19.20;71.20;;;;;;4882320;29;19923;-74
2023/05/27 18:13:28;;;;;;;;;;;19.10;71.00;;;;;;4882086;29;19923;-72
2023/05/27 18:15:55;;;;;;;;;;;19.10;71.50;;;;;;4881943;29;20380;-72
2023/05/27 18:18:21;;;;;;;;;;;19.10;71.90;;;;;;4882152;29;19923;-72
2023/05/27 18:20:48;;;;;;;;;;;19.00;72.20;;;;;;4882128;29;19923;-73
2023/05/27 18:23:16;;;;;;;;;;;18.90;72.30;;;;;;4882033;29;19927;-73
2023/05/27 18:25:42;;;;;;;;;;;18.90;72.30;;;;;;4881724;29;20379;-72
2023/05/27 18:28:09;;;;;;;;;;;18.80;72.50;;;;;;4881575;29;20376;-73
2023/05/27 18:30:36;;;;;;;;;;;18.80;72.30;;;;;;4881594;29;19928;-72
2023/05/27 18:33:04;;;;;;;;;;;18.70;72.60;;;;;;4881944;29;19924;-72
2023/05/27 18:35:31;;;;;;;;;;;18.70;73.90;;;;;;4881851;29;19971;-72
2023/05/27 18:37:58;;;;;;;;;;;18.60;74.70;;;;;;4881828;29;19923;-71
2023/05/27 18:40:28;;;;;;;;;;;18.50;74.80;;;;;;4881700;29;19924;-72
2023/05/27 18:42:54;;;;;;;;;;;18.50;75.40;;;;;;4881300;29;20402;-72
2023/05/27 18:45:25;;;;;;;;;;;18.40;75.40;;;;;;4881201;29;20333;-72
2023/05/27 18:47:52;;;;;;;;;;;18.40;76.00;;;;;;4881535;29;19927;-71
2023/05/27 18:50:19;;;;;;;;;;;18.30;76.50;;;;;;4881458;29;19927;-72
2023/05/27 18:52:45;;;;;;;;;;;18.20;77.60;;;;;;4881877;29;19931;-68
2023/05/27 18:55:12;;;;;;;;;;;18.10;78.70;;;;;;4881368;29;19975;-68
2023/05/27 18:57:40;;;;;;;;;;;18.00;79.80;;;;;;4881266;29;19924;-68
2023/05/27 19:00:08;;;;;;;;;;;17.90;81.70;;;;;;4881695;29;19966;-67
2023/05/27 19:02:34;;;;;;;;;;;17.80;86.40;;;;;;4881671;29;19982;-68
2023/05/27 19:05:01;;;;;;;;;;;17.60;91.60;;;;;;4881289;29;19924;-68
2023/05/27 19:07:27;;;;;;;;;;;17.50;95.20;;;;;;4880905;29;20285;-68
2023/05/27 19:09:54;;;;;;;;;;;17.30;99.60;;;;;;4880692;29;20444;-68
2023/05/27 19:12:21;;;;;;;;;;;17.00;99.90;;;;;;4881128;29;20010;-68
2023/05/27 19:14:48;;;;;;;;;;;16.80;99.90;;;;;;4881173;29;19931;-68
2023/05/27 19:17:15;;;;;;;;;;;16.60;99.90;;;;;;4880963;29;19930;-68
2023/05/27 19:19:42;;;;;;;;;;;16.40;99.90;;;;;;4880710;29;20388;-68
2023/05/27 19:22:09;;;;;;;;;;;16.30;99.90;;;;;;4880634;29;20014;-67
2023/05/27 19:24:37;;;;;;;;;;;;;;;;;;4880935;29;19945;-68
2023/05/27 19:27:04;;;;;;;;;;;15.90;99.90;;;;;;4880919;29;19923;-68
2023/05/27 19:29:30;;;;;;;;;;;15.80;99.90;;;;;;4880578;29;20304;-68
2023/05/27 19:31:58;;;;;;;;;;;15.60;99.90;;;;;;4880825;29;19924;-71
2023/05/27 19:34:25;;;;;;;;;;;15.50;99.90;;;;;;4880801;29;19928;-71
2023/05/27 19:36:51;;;;;;;;;;;15.30;99.90;;;;;;4880737;29;19924;-70
2023/05/27 19:39:19;;;;;;;;;;;;;;;;;;4881275;29;19924;-71
2023/05/27 19:41:46;;;;;;;;;;;;;;;;;;4880603;29;19924;-70
2023/05/27 19:44:13;;;;;;;;;;;14.90;99.90;;;;;;4880840;29;19924;-71
2023/05/27 19:46:39;;;;;;;;;;;14.90;99.90;;;;;;4880645;29;19928;-71
2023/05/27 19:49:07;;;;;;;;;;;14.80;99.90;;;;;;4880668;29;19930;-71
2023/05/27 19:51:35;;;;;;;;;;;14.70;99.90;;;;;;4881100;29;19934;-70
2023/05/27 19:54:01;;;;;;;;;;;14.60;99.90;;;;;;4880745;29;19924;-71
2023/05/27 19:56:28;;;;;;;;;;;14.50;99.90;;;;;;4880265;29;20489;-71
2023/05/27 19:58:54;;;;;;;;;;;14.40;99.90;;;;;;4880465;29;19935;-71
2023/05/27 20:01:21;;;;;;;;;;;14.30;99.90;;;;;;4880806;29;19923;-71
2023/05/27 20:03:47;;;;;;;;;;;14.20;99.90;;;;;;4880365;29;19931;-71
2023/05/27 20:06:15;;;;;;;;;;;14.10;99.90;;;;;;4880599;29;19935;-71
2023/05/27 20:08:42;;;;;;;;;;;14.00;99.90;;;;;;4880370;29;19923;-71
2023/05/27 20:11:09;;;;;;;;;;;14.00;99.90;;;;;;4880539;29;20364;-71
2023/05/27 20:13:35;;;;;;;;;;;13.80;99.90;;;;;;4880628;29;19924;-71
2023/05/27 20:16:02;;;;;;;;;;;13.80;99.90;;;;;;4880297;29;19931;-72
2023/05/27 20:18:29;;;;;;;;;;;13.70;99.90;;;;;;4880367;29;19930;-72
2023/05/27 20:20:55;;;;;;;;;;;13.60;99.90;;;;;;4880226;29;19931;-72
2023/05/27 20:23:23;;;;;;;;;;;13.60;99.90;;;;;;4881159;29;19930;-70
2023/05/27 20:25:50;;;;;;;;;;;13.50;99.90;;;;;;4880940;29;20329;-70
2023/05/27 20:28:17;;;;;;;;;;;13.40;99.90;;;;;;4880962;29;20399;-71
2023/05/27 20:30:45;;;;;;;;;;;13.40;99.90;;;;;;4881253;29;20013;-71
2023/05/27 20:33:12;;;;;;;;;;;13.30;99.90;;;;;;4882324;29;19949;-71
2023/05/27 20:35:38;;;;;;;;;;;13.30;99.90;;;;;;4885823;29;19923;-72
2023/05/27 20:38:05;;;;;;;;;;;13.20;99.90;;;;;;4885814;29;19927;-71
2023/05/27 20:40:33;;;;;;;;;;;13.20;99.90;;;;;;4884855;29;19923;-71
2023/05/27 20:42:59;;;;;;;;;;;13.20;99.90;;;;;;4884619;29;19924;-71
2023/05/27 20:45:26;;;;;;;;;;;13.10;99.90;;;;;;4884925;29;19923;-70
2023/05/27 20:47:53;;;;;;;;;;;13.00;99.90;;;;;;4885138;29;19924;-71
2023/05/27 20:50:21;;;;;;;;;;;13.00;99.90;;;;;;4884711;29;19924;-71
2023/05/27 20:52:47;;;;;;;;;;;12.90;99.90;;;;;;4883987;29;20395;-72
2023/05/27 20:55:14;;;;;;;;;;;12.80;99.90;;;;;;4884080;29;20281;-72
2023/05/27 20:57:42;;;;;;;;;;;12.80;99.90;;;;;;4884323;29;19924;-71
2023/05/27 21:00:09;;;;;;;;;;;12.80;99.90;;;;;;4885351;29;19946;-71
2023/05/27 21:02:36;;;;;;;;;;;12.70;99.90;;;;;;4884588;29;19927;-71
2023/05/27 21:05:03;;;;;;;;;;;12.70;99.90;;;;;;4884791;29;19923;-71
2023/05/27 21:07:29;;;;;;;;;;;12.60;99.90;;;;;;4885911;29;19923;-71
2023/05/27 21:09:56;;;;;;;;;;;12.50;99.90;;;;;;4884767;29;19931;-71
2023/05/27 21:12:23;;;;;;;;;;;12.50;99.90;;;;;;4885294;29;19984;-70
2023/05/27 21:14:50;;;;;;;;;;;12.50;99.90;;;;;;4884254;29;19924;-70
2023/05/27 21:17:17;;;;;;;;;;;12.40;99.90;;;;;;4884146;29;20379;-70
2023/05/27 21:19:44;;;;;;;;;;;12.40;99.90;;;;;;4884318;29;20380;-70
2023/05/27 21:22:10;;;;;;;;;;;12.30;99.90;;;;;;4884650;29;19924;-70
2023/05/27 21:24:37;;;;;;;;;;;12.30;99.90;;;;;;4884622;29;19930;-70
2023/05/27 21:27:04;;;;;;;;;;;12.20;99.90;;;;;;4884523;29;20019;-70
2023/05/27 21:29:30;;;;;;;;;;;12.20;99.90;;;;;;4884685;29;19923;-70
2023/05/27 21:31:58;;;;;;;;;;;12.10;99.90;;;;;;4884971;29;19924;-70
2023/05/27 21:34:25;;;;;;;;;;;12.10;99.90;;;;;;4884859;29;19924;-70
2023/05/27 21:36:51;;;;;;;;;;;12.10;99.90;;;;;;4885536;29;19923;-70
2023/05/27 21:39:18;;;;;;;;;;;12.00;99.90;;;;;;4884571;29;19928;-70
2023/05/27 21:41:44;;;;;;;;;;;12.00;99.90;;;;;;4884145;29;20265;-70
2023/05/27 21:44:11;;;;;;;;;;;11.90;99.90;;;;;;4883237;29;19946;-70
2023/05/27 21:46:38;;;;;;;;;;;11.90;99.90;;;;;;4883111;29;19930;-70
2023/05/27 21:49:06;;;;;;;;;;;11.80;99.90;;;;;;4882857;29;20306;-70
2023/05/27 21:51:32;;;;;;;;;;;11.80;99.90;;;;;;4883855;29;19924;-70
2023/05/27 21:53:59;;;;;;;;;;;11.80;99.90;;;;;;4883362;29;20368;-69
2023/05/27 21:56:26;;;;;;;;;;;11.70;99.90;;;;;;4884159;29;19951;-69
2023/05/27 21:58:53;;;;;;;;;;;11.70;99.90;;;;;;4883044;29;19924;-69
2023/05/27 22:01:19;;;;;;;;;;;11.70;99.90;;;;;;4884023;29;19924;-69
2023/05/27 22:03:46;;;;;;;;;;;11.70;99.90;;;;;;4883020;29;19935;-69
2023/05/27 22:06:14;;;;;;;;;;;11.70;99.90;;;;;;4884313;29;20293;-69
2023/05/27 22:08:41;;;;;;;;;;;11.60;99.90;;;;;;4883503;29;20352;-70
2023/05/27 22:11:07;;;;;;;;;;;11.60;99.90;;;;;;4884578;29;19923;-70
2023/05/27 22:13:34;;;;;;;;;;;11.50;99.90;;;;;;4883297;29;19923;-70
2023/05/27 22:16:00;;;;;;;;;;;11.50;99.90;;;;;;4884102;29;19924;-70
2023/05/27 22:18:27;;;;;;;;;;;11.50;99.90;;;;;;4884115;29;19923;-70
2023/05/27 22:20:55;;;;;;;;;;;11.40;99.90;;;;;;4883452;29;19931;-69
2023/05/27 22:23:23;;;;;;;;;;;11.30;99.90;;;;;;4884404;29;20019;-69
2023/05/27 22:25:50;;;;;;;;;;;11.30;99.90;;;;;;4883897;29;19924;-69
2023/05/27 22:28:16;;;;;;;;;;;11.20;99.90;;;;;;4883494;29;20372;-69
2023/05/27 22:30:45;;;;;;;;;;;11.20;99.90;;;;;;4883272;29;19959;-69
2023/05/27 22:33:11;;;;;;;;;;;11.20;99.90;;;;;;4883575;29;19927;-69
2023/05/27 22:35:38;;;;;;;;;;;11.10;99.90;;;;;;4883594;29;19924;-69
2023/05/27 22:38:05;;;;;;;;;;;11.10;99.90;;;;;;4883619;29;19931;-69
2023/05/27 22:40:32;;;;;;;;;;;11.00;99.90;;;;;;4883422;29;19924;-69
2023/05/27 22:42:59;;;;;;;;;;;11.00;99.90;;;;;;4883444;29;20305;-69
2023/05/27 22:45:26;;;;;;;;;;;11.00;99.90;;;;;;4885377;29;19924;-69
2023/05/27 22:47:52;;;;;;;;;;;10.90;99.90;;;;;;4885505;29;19924;-69
2023/05/27 22:50:19;;;;;;;;;;;10.90;99.90;;;;;;4883852;29;19924;-69
2023/05/27 22:52:45;;;;;;;;;;;10.90;99.90;;;;;;4882868;29;19984;-69
2023/05/27 22:55:12;;;;;;;;;;;10.80;99.90;;;;;;4882390;29;19931;-69
2023/05/27 22:57:40;;;;;;;;;;;10.80;99.90;;;;;;4883108;29;20288;-69
2023/05/27 23:00:07;;;;;;;;;;;10.70;99.90;;;;;;4883792;29;19928;-70
2023/05/27 23:02:33;;;;;;;;;;;10.70;99.90;;;;;;4882850;29;19953;-69
2023/05/27 23:05:00;;;;;;;;;;;10.70;99.90;;;;;;4882835;29;19932;-69
2023/05/27 23:07:27;;;;;;;;;;;10.60;99.90;;;;;;4882570;29;19931;-69
2023/05/27 23:09:53;;;;;;;;;;;10.50;99.90;;;;;;4881646;29;19931;-71
2023/05/27 23:12:20;;;;;;;;;;;10.60;99.90;;;;;;4882146;29;19924;-70
2023/05/27 23:14:48;;;;;;;;;;;10.60;99.90;;;;;;4881209;29;19927;-70
2023/05/27 23:17:14;;;;;;;;;;;10.50;99.90;;;;;;4881327;29;19923;-70
2023/05/27 23:19:41;;;;;;;;;;;10.50;99.90;;;;;;4881872;29;19923;-69
2023/05/27 23:22:07;;;;;;;;;;;10.50;99.90;;;;;;4882067;29;19923;-69
2023/05/27 23:24:34;;;;;;;;;;;10.50;99.90;;;;;;4881824;29;19924;-69
2023/05/27 23:27:01;;;;;;;;;;;10.40;99.90;;;;;;4881241;29;19930;-69
2023/05/27 23:29:27;;;;;;;;;;;10.40;99.90;;;;;;4881926;29;20423;-70
2023/05/27 23:31:55;;;;;;;;;;;10.30;99.90;;;;;;4881293;29;19931;-70
2023/05/27 23:34:22;;;;;;;;;;;10.30;99.90;;;;;;4881619;29;19924;-69
2023/05/27 23:36:48;;;;;;;;;;;10.30;99.90;;;;;;4881335;29;19924;-69
2023/05/27 23:39:16;;;;;;;;;;;10.30;99.90;;;;;;4881204;29;19930;-69
2023/05/27 23:41:42;;;;;;;;;;;10.20;99.90;;;;;;4881228;29;19924;-69
2023/05/27 23:44:09;;;;;;;;;;;10.20;99.90;;;;;;4881807;29;19923;-69
2023/05/27 23:46:35;;;;;;;;;;;10.20;99.90;;;;;;4881740;29;19930;-70
2023/05/27 23:49:03;;;;;;;;;;;10.10;99.90;;;;;;4880308;29;20295;-71
2023/05/27 23:51:30;;;;;;;;;;;10.10;99.90;;;;;;4880398;29;19978;-71
2023/05/27 23:53:56;;;;;;;;;;;10.10;99.90;;;;;;4880230;29;19931;-71
2023/05/27 23:56:23;;;;;;;;;;;10.00;99.90;;;;;;4880292;29;19931;-71
2023/05/27 23:58:50;;;;;;;;;;;;;;;;;;4880137;29;19931;-71
